SAS77E ENGM-ENHD
Flight info
| Callsign | SAS77E |
|---|---|
| Flight time | 0h 45m |
| Altitude | 28000 |
| Route | ATLAP5A ATLAP DCT IPMOD DCT ULVOS ULVOS1V |
| Aircraft | E195/M-SDE3GILORVW/S |
Departure
| Time | 2026-05-05 18:23 |
|---|---|
| Airport | Oslo-Gardermoen International Airport (ENGM) |
Arrival
| Time | 2026-05-05 19:08 |
|---|---|
| Airport | Haugesund Airport, Karmøy (ENHD) |
| Time | Latitude | Longitude | Altitude | Speed | Heading |
|---|---|---|---|---|---|
| 2026-05-05 17:59 | 60.19498 | 11.09196 | 686 ft | 0 kts | 15° |
| 2026-05-05 18:13 | 60.19497 | 11.09196 | 686 ft | 1 kts | 15° |
| 2026-05-05 18:13 | 60.19483 | 11.09188 | 686 ft | 2 kts | 15° |
| 2026-05-05 18:13 | 60.19469 | 11.09180 | 686 ft | 2 kts | 15° |
| 2026-05-05 18:14 | 60.19454 | 11.09172 | 686 ft | 1 kts | 15° |
| 2026-05-05 18:14 | 60.19452 | 11.09170 | 686 ft | 0 kts | 15° |
| 2026-05-05 18:16 | 60.19455 | 11.09170 | 686 ft | 0 kts | 358° |
| 2026-05-05 18:16 | 60.19461 | 11.09162 | 686 ft | 1 kts | 310° |
| 2026-05-05 18:17 | 60.19463 | 11.09134 | 686 ft | 2 kts | 262° |
| 2026-05-05 18:17 | 60.19460 | 11.09088 | 686 ft | 3 kts | 265° |
| 2026-05-05 18:17 | 60.19466 | 11.09016 | 686 ft | 7 kts | 286° |
| 2026-05-05 18:17 | 60.19487 | 11.08879 | 686 ft | 12 kts | 286° |
| 2026-05-05 18:18 | 60.19512 | 11.08701 | 686 ft | 10 kts | 286° |
| 2026-05-05 18:18 | 60.19517 | 11.08553 | 686 ft | 11 kts | 239° |
| 2026-05-05 18:18 | 60.19444 | 11.08481 | 686 ft | 12 kts | 195° |
| 2026-05-05 18:18 | 60.19359 | 11.08432 | 687 ft | 13 kts | 196° |
| 2026-05-05 18:19 | 60.19265 | 11.08377 | 687 ft | 15 kts | 196° |
| 2026-05-05 18:19 | 60.19156 | 11.08314 | 686 ft | 16 kts | 196° |
| 2026-05-05 18:19 | 60.19041 | 11.08249 | 687 ft | 18 kts | 197° |
| 2026-05-05 18:19 | 60.18914 | 11.08175 | 687 ft | 19 kts | 196° |
| 2026-05-05 18:20 | 60.18777 | 11.08095 | 687 ft | 21 kts | 196° |
| 2026-05-05 18:20 | 60.18642 | 11.08018 | 687 ft | 17 kts | 195° |
| 2026-05-05 18:20 | 60.18558 | 11.07967 | 687 ft | 6 kts | 212° |
| 2026-05-05 18:20 | 60.18541 | 11.07877 | 687 ft | 7 kts | 280° |
| 2026-05-05 18:21 | 60.18557 | 11.07750 | 687 ft | 11 kts | 285° |
| 2026-05-05 18:21 | 60.18581 | 11.07582 | 687 ft | 13 kts | 286° |
| 2026-05-05 18:21 | 60.18600 | 11.07456 | 687 ft | 4 kts | 298° |
| 2026-05-05 18:21 | 60.18631 | 11.07451 | 687 ft | 6 kts | 14° |
| 2026-05-05 18:22 | 60.18691 | 11.07484 | 687 ft | 16 kts | 15° |
| 2026-05-05 18:22 | 60.19109 | 11.07724 | 687 ft | 104 kts | 15° |
| 2026-05-05 18:22 | 60.20042 | 11.08258 | 708 ft | 170 kts | 16° |
| 2026-05-05 18:22 | 60.21247 | 11.08962 | 1223 ft | 197 kts | 14° |
| 2026-05-05 18:23 | 60.22611 | 11.09708 | 2005 ft | 214 kts | 13° |
| 2026-05-05 18:23 | 60.24003 | 11.10506 | 3040 ft | 210 kts | 14° |
| 2026-05-05 18:23 | 60.25361 | 11.11290 | 4020 ft | 207 kts | 12° |
| 2026-05-05 18:23 | 60.26863 | 11.11278 | 4385 ft | 235 kts | 348° |
| 2026-05-05 18:24 | 60.28439 | 11.09964 | 4830 ft | 259 kts | 316° |
| 2026-05-05 18:24 | 60.29357 | 11.06875 | 5646 ft | 269 kts | 284° |
| 2026-05-05 18:24 | 60.29759 | 11.03262 | 6766 ft | 269 kts | 283° |
| 2026-05-05 18:24 | 60.30170 | 10.99668 | 7942 ft | 266 kts | 283° |
| 2026-05-05 18:25 | 60.30590 | 10.96084 | 9000 ft | 266 kts | 284° |
| 2026-05-05 18:25 | 60.30873 | 10.93701 | 9648 ft | 268 kts | 283° |
| 2026-05-05 18:25 | 60.31449 | 10.88851 | 10895 ft | 272 kts | 283° |
| 2026-05-05 18:25 | 60.31893 | 10.85110 | 11693 ft | 281 kts | 282° |
| 2026-05-05 18:26 | 60.31867 | 10.81144 | 12372 ft | 294 kts | 253° |
| 2026-05-05 18:26 | 60.30764 | 10.77648 | 13142 ft | 309 kts | 224° |
| 2026-05-05 18:26 | 60.28959 | 10.75335 | 14079 ft | 315 kts | 214° |
| 2026-05-05 18:26 | 60.27062 | 10.73081 | 15057 ft | 317 kts | 216° |
| 2026-05-05 18:27 | 60.25204 | 10.70804 | 15972 ft | 319 kts | 217° |
| 2026-05-05 18:27 | 60.23315 | 10.68462 | 16890 ft | 321 kts | 218° |
| 2026-05-05 18:27 | 60.21434 | 10.66118 | 17717 ft | 325 kts | 218° |
| 2026-05-05 18:27 | 60.19527 | 10.63740 | 18556 ft | 328 kts | 219° |
| 2026-05-05 18:28 | 60.16646 | 10.57317 | 20098 ft | 309 kts | 260° |
| 2026-05-05 18:28 | 60.16382 | 10.53085 | 20989 ft | 304 kts | 268° |
| 2026-05-05 18:28 | 60.16242 | 10.48938 | 21910 ft | 300 kts | 268° |
| 2026-05-05 18:29 | 60.16132 | 10.44821 | 22740 ft | 297 kts | 269° |
| 2026-05-05 18:29 | 60.16036 | 10.40714 | 23441 ft | 297 kts | 269° |
| 2026-05-05 18:29 | 60.15943 | 10.36606 | 24090 ft | 297 kts | 269° |
| 2026-05-05 18:29 | 60.15852 | 10.32457 | 24783 ft | 298 kts | 268° |
| 2026-05-05 18:30 | 60.15760 | 10.28340 | 25367 ft | 302 kts | 268° |
| 2026-05-05 18:30 | 60.15667 | 10.24148 | 25815 ft | 299 kts | 268° |
| 2026-05-05 18:30 | 60.15570 | 10.19854 | 25868 ft | 318 kts | 268° |
| 2026-05-05 18:30 | 60.15468 | 10.15328 | 25875 ft | 333 kts | 268° |
| 2026-05-05 18:31 | 60.15359 | 10.10650 | 25875 ft | 337 kts | 268° |
| 2026-05-05 18:31 | 60.15249 | 10.05972 | 25860 ft | 340 kts | 268° |
| 2026-05-05 18:31 | 60.15137 | 10.01284 | 25864 ft | 337 kts | 268° |
| 2026-05-05 18:31 | 60.15022 | 9.96565 | 25881 ft | 337 kts | 268° |
| 2026-05-05 18:32 | 60.14907 | 9.91893 | 25872 ft | 336 kts | 268° |
| 2026-05-05 18:32 | 60.14791 | 9.87268 | 25871 ft | 335 kts | 268° |
| 2026-05-05 18:32 | 60.14671 | 9.82595 | 25873 ft | 336 kts | 266° |
| 2026-05-05 18:32 | 60.14032 | 9.78052 | 25890 ft | 343 kts | 250° |
| 2026-05-05 18:33 | 60.12947 | 9.73784 | 25863 ft | 345 kts | 248° |
| 2026-05-05 18:33 | 60.11838 | 9.69519 | 25867 ft | 342 kts | 248° |
| 2026-05-05 18:33 | 60.10732 | 9.65300 | 25855 ft | 345 kts | 248° |
| 2026-05-05 18:33 | 60.09620 | 9.61076 | 25839 ft | 342 kts | 248° |
| 2026-05-05 18:34 | 60.08526 | 9.56931 | 25830 ft | 333 kts | 248° |
| 2026-05-05 18:34 | 60.07445 | 9.52840 | 25832 ft | 331 kts | 248° |
| 2026-05-05 18:34 | 60.06384 | 9.48832 | 25817 ft | 331 kts | 249° |
| 2026-05-05 18:34 | 60.05334 | 9.44789 | 25834 ft | 326 kts | 252° |
| 2026-05-05 18:35 | 60.04578 | 9.40511 | 25852 ft | 326 kts | 255° |
| 2026-05-05 18:35 | 60.03809 | 9.36211 | 25846 ft | 325 kts | 255° |
| 2026-05-05 18:35 | 60.03032 | 9.32004 | 25864 ft | 326 kts | 253° |
| 2026-05-05 18:35 | 60.02238 | 9.27740 | 25863 ft | 325 kts | 254° |
| 2026-05-05 18:36 | 60.01439 | 9.23461 | 25876 ft | 327 kts | 254° |
| 2026-05-05 18:36 | 60.00652 | 9.19237 | 25856 ft | 326 kts | 253° |
| 2026-05-05 18:36 | 59.99869 | 9.15005 | 25853 ft | 324 kts | 253° |
| 2026-05-05 18:36 | 59.99081 | 9.10812 | 25844 ft | 326 kts | 253° |
| 2026-05-05 18:37 | 59.98282 | 9.06612 | 25836 ft | 326 kts | 251° |
| 2026-05-05 18:37 | 59.96952 | 9.02805 | 25840 ft | 342 kts | 232° |
| 2026-05-05 18:37 | 59.95410 | 8.99301 | 25833 ft | 335 kts | 244° |
| 2026-05-05 18:37 | 59.93975 | 8.95628 | 25832 ft | 343 kts | 232° |
| 2026-05-05 18:38 | 59.92197 | 8.92428 | 25846 ft | 347 kts | 231° |
| 2026-05-05 18:38 | 59.90423 | 8.89266 | 25846 ft | 348 kts | 230° |
| 2026-05-05 18:38 | 59.88603 | 8.86027 | 25857 ft | 347 kts | 231° |
| 2026-05-05 18:38 | 59.86829 | 8.82878 | 25862 ft | 346 kts | 231° |
| 2026-05-05 18:39 | 59.85064 | 8.79635 | 25869 ft | 341 kts | 236° |
| 2026-05-05 18:39 | 59.83689 | 8.75592 | 25887 ft | 331 kts | 249° |
| 2026-05-05 18:39 | 59.82744 | 8.71432 | 25879 ft | 331 kts | 253° |
| 2026-05-05 18:39 | 59.81927 | 8.67167 | 25862 ft | 329 kts | 254° |
| 2026-05-05 18:40 | 59.81172 | 8.62910 | 25848 ft | 329 kts | 255° |
| 2026-05-05 18:40 | 59.80432 | 8.58601 | 25833 ft | 329 kts | 255° |
| 2026-05-05 18:40 | 59.79706 | 8.54334 | 25819 ft | 329 kts | 255° |
| 2026-05-05 18:40 | 59.78981 | 8.50047 | 25803 ft | 328 kts | 256° |
| 2026-05-05 18:41 | 59.78259 | 8.45785 | 25797 ft | 329 kts | 255° |
| 2026-05-05 18:41 | 59.77524 | 8.41449 | 25797 ft | 328 kts | 255° |
| 2026-05-05 18:41 | 59.76790 | 8.37121 | 25809 ft | 345 kts | 255° |
| 2026-05-05 18:41 | 59.76019 | 8.32606 | 25809 ft | 337 kts | 255° |
| 2026-05-05 18:42 | 59.75294 | 8.28366 | 25611 ft | 321 kts | 255° |
| 2026-05-05 18:42 | 59.74578 | 8.24179 | 24980 ft | 317 kts | 255° |
| 2026-05-05 18:42 | 59.73871 | 8.20048 | 24156 ft | 319 kts | 255° |
| 2026-05-05 18:42 | 59.73167 | 8.15955 | 23353 ft | 321 kts | 255° |
| 2026-05-05 18:43 | 59.72445 | 8.11758 | 22557 ft | 322 kts | 255° |
| 2026-05-05 18:43 | 59.71730 | 8.07623 | 21786 ft | 322 kts | 255° |
| 2026-05-05 18:43 | 59.71008 | 8.03445 | 21036 ft | 321 kts | 255° |
| 2026-05-05 18:43 | 59.70293 | 7.99325 | 20290 ft | 321 kts | 255° |
| 2026-05-05 18:44 | 59.69568 | 7.95156 | 19560 ft | 321 kts | 255° |
| 2026-05-05 18:44 | 59.68840 | 7.90975 | 18818 ft | 320 kts | 255° |
| 2026-05-05 18:44 | 59.68122 | 7.86864 | 18094 ft | 320 kts | 255° |
| 2026-05-05 18:44 | 59.67395 | 7.82705 | 17315 ft | 321 kts | 255° |
| 2026-05-05 18:45 | 59.66668 | 7.78558 | 16612 ft | 320 kts | 255° |
| 2026-05-05 18:45 | 59.65954 | 7.74499 | 15931 ft | 318 kts | 255° |
| 2026-05-05 18:45 | 59.65222 | 7.70343 | 15187 ft | 319 kts | 254° |
| 2026-05-05 18:45 | 59.64497 | 7.66235 | 14474 ft | 319 kts | 254° |
| 2026-05-05 18:46 | 59.63767 | 7.62113 | 13770 ft | 318 kts | 254° |
| 2026-05-05 18:46 | 59.63045 | 7.58044 | 13107 ft | 317 kts | 254° |
| 2026-05-05 18:46 | 59.62323 | 7.53979 | 12482 ft | 314 kts | 254° |
| 2026-05-05 18:46 | 59.61607 | 7.49957 | 11838 ft | 312 kts | 254° |
| 2026-05-05 18:47 | 59.60888 | 7.45930 | 11226 ft | 309 kts | 254° |
| 2026-05-05 18:47 | 59.60186 | 7.42004 | 10791 ft | 302 kts | 254° |
| 2026-05-05 18:47 | 59.59503 | 7.38199 | 10446 ft | 292 kts | 255° |
| 2026-05-05 18:47 | 59.58840 | 7.34506 | 10099 ft | 284 kts | 253° |
| 2026-05-05 18:48 | 59.58189 | 7.30885 | 9832 ft | 279 kts | 253° |
| 2026-05-05 18:48 | 59.57538 | 7.27274 | 9820 ft | 274 kts | 253° |
| 2026-05-05 18:48 | 59.56909 | 7.23791 | 9817 ft | 273 kts | 253° |
| 2026-05-05 18:48 | 59.56272 | 7.20272 | 9817 ft | 273 kts | 253° |
| 2026-05-05 18:49 | 59.55636 | 7.16756 | 9818 ft | 274 kts | 253° |
| 2026-05-05 18:49 | 59.54994 | 7.13227 | 9820 ft | 273 kts | 254° |
| 2026-05-05 18:49 | 59.54350 | 7.09687 | 9825 ft | 275 kts | 253° |
| 2026-05-05 18:49 | 59.53707 | 7.06158 | 9820 ft | 274 kts | 253° |
| 2026-05-05 18:50 | 59.53066 | 7.02646 | 9826 ft | 274 kts | 253° |
| 2026-05-05 18:50 | 59.52420 | 6.99119 | 9829 ft | 274 kts | 253° |
| 2026-05-05 18:50 | 59.51775 | 6.95598 | 9831 ft | 274 kts | 254° |
| 2026-05-05 18:50 | 59.51133 | 6.92103 | 9827 ft | 273 kts | 253° |
| 2026-05-05 18:51 | 59.50320 | 6.88707 | 9826 ft | 278 kts | 237° |
| 2026-05-05 18:51 | 59.49102 | 6.85791 | 9837 ft | 280 kts | 233° |
| 2026-05-05 18:51 | 59.47830 | 6.82863 | 9827 ft | 279 kts | 233° |
| 2026-05-05 18:51 | 59.46566 | 6.79955 | 9823 ft | 280 kts | 233° |
| 2026-05-05 18:52 | 59.45305 | 6.77048 | 9824 ft | 280 kts | 234° |
| 2026-05-05 18:52 | 59.44420 | 6.73798 | 9842 ft | 270 kts | 261° |
| 2026-05-05 18:52 | 59.43990 | 6.70188 | 9862 ft | 271 kts | 258° |
| 2026-05-05 18:52 | 59.43448 | 6.66692 | 9866 ft | 272 kts | 256° |
| 2026-05-05 18:53 | 59.42841 | 6.63229 | 9766 ft | 264 kts | 255° |
| 2026-05-05 18:53 | 59.42203 | 6.59763 | 9666 ft | 274 kts | 253° |
| 2026-05-05 18:53 | 59.41544 | 6.56297 | 9491 ft | 266 kts | 253° |
| 2026-05-05 18:53 | 59.40902 | 6.52955 | 9065 ft | 264 kts | 253° |
| 2026-05-05 18:54 | 59.40244 | 6.49554 | 8523 ft | 266 kts | 253° |
| 2026-05-05 18:54 | 59.39590 | 6.46193 | 8043 ft | 270 kts | 253° |
| 2026-05-05 18:54 | 59.38916 | 6.42736 | 7960 ft | 268 kts | 253° |
| 2026-05-05 18:54 | 59.38263 | 6.39400 | 7698 ft | 260 kts | 253° |
| 2026-05-05 18:55 | 59.37620 | 6.36118 | 7206 ft | 262 kts | 253° |
| 2026-05-05 18:55 | 59.36974 | 6.32828 | 6925 ft | 255 kts | 252° |
| 2026-05-05 18:55 | 59.36347 | 6.29644 | 6674 ft | 248 kts | 252° |
| 2026-05-05 18:55 | 59.35728 | 6.26497 | 6356 ft | 244 kts | 252° |
| 2026-05-05 18:56 | 59.35124 | 6.23432 | 5994 ft | 243 kts | 252° |
| 2026-05-05 18:56 | 59.34513 | 6.20338 | 5614 ft | 242 kts | 252° |
| 2026-05-05 18:56 | 59.33903 | 6.17256 | 5242 ft | 241 kts | 252° |
| 2026-05-05 18:56 | 59.33299 | 6.14205 | 4868 ft | 241 kts | 252° |
| 2026-05-05 18:57 | 59.32704 | 6.11210 | 4509 ft | 239 kts | 252° |
| 2026-05-05 18:57 | 59.32098 | 6.08157 | 4143 ft | 238 kts | 252° |
| 2026-05-05 18:57 | 59.31499 | 6.05149 | 3978 ft | 239 kts | 252° |
| 2026-05-05 18:57 | 59.30895 | 6.02119 | 3963 ft | 238 kts | 252° |
| 2026-05-05 18:58 | 59.30291 | 5.99093 | 3962 ft | 238 kts | 251° |
| 2026-05-05 18:58 | 59.29691 | 5.96098 | 3961 ft | 238 kts | 252° |
| 2026-05-05 18:58 | 59.29087 | 5.93080 | 3965 ft | 238 kts | 252° |
| 2026-05-05 18:58 | 59.28486 | 5.90083 | 3970 ft | 239 kts | 252° |
| 2026-05-05 18:59 | 59.27879 | 5.87062 | 3977 ft | 239 kts | 252° |
| 2026-05-05 18:59 | 59.27265 | 5.84008 | 3985 ft | 239 kts | 252° |
| 2026-05-05 18:59 | 59.26662 | 5.81015 | 3991 ft | 240 kts | 252° |
| 2026-05-05 18:59 | 59.26059 | 5.78031 | 4023 ft | 227 kts | 252° |
| 2026-05-05 19:00 | 59.25504 | 5.75294 | 4002 ft | 209 kts | 253° |
| 2026-05-05 19:00 | 59.24980 | 5.72705 | 3988 ft | 203 kts | 253° |
| 2026-05-05 19:00 | 59.24471 | 5.70189 | 3810 ft | 197 kts | 253° |
| 2026-05-05 19:00 | 59.23964 | 5.67685 | 3425 ft | 200 kts | 253° |
| 2026-05-05 19:01 | 59.23454 | 5.65167 | 3063 ft | 203 kts | 252° |
| 2026-05-05 19:01 | 59.22932 | 5.62603 | 3018 ft | 203 kts | 252° |
| 2026-05-05 19:01 | 59.22414 | 5.60055 | 3006 ft | 204 kts | 252° |
| 2026-05-05 19:01 | 59.21885 | 5.57462 | 3005 ft | 205 kts | 253° |
| 2026-05-05 19:02 | 59.21358 | 5.54880 | 3003 ft | 205 kts | 252° |
| 2026-05-05 19:02 | 59.20828 | 5.52286 | 3000 ft | 206 kts | 252° |
| 2026-05-05 19:02 | 59.20604 | 5.49686 | 2999 ft | 185 kts | 288° |
| 2026-05-05 19:02 | 59.21198 | 5.47766 | 3125 ft | 154 kts | 315° |
| 2026-05-05 19:03 | 59.21874 | 5.46311 | 3314 ft | 133 kts | 316° |
| 2026-05-05 19:03 | 59.22472 | 5.44988 | 3372 ft | 131 kts | 311° |
| 2026-05-05 19:03 | 59.23068 | 5.43668 | 3194 ft | 130 kts | 317° |
| 2026-05-05 19:03 | 59.23693 | 5.42421 | 3028 ft | 128 kts | 317° |
| 2026-05-05 19:04 | 59.24321 | 5.41175 | 2856 ft | 129 kts | 317° |
| 2026-05-05 19:04 | 59.24939 | 5.39946 | 2684 ft | 127 kts | 317° |
| 2026-05-05 19:04 | 59.25561 | 5.38713 | 2506 ft | 128 kts | 317° |
| 2026-05-05 19:04 | 59.26185 | 5.37473 | 2323 ft | 128 kts | 317° |
| 2026-05-05 19:05 | 59.26813 | 5.36226 | 2142 ft | 128 kts | 317° |
| 2026-05-05 19:05 | 59.27425 | 5.35006 | 1959 ft | 127 kts | 317° |
| 2026-05-05 19:05 | 59.28043 | 5.33768 | 1781 ft | 127 kts | 316° |
| 2026-05-05 19:05 | 59.28649 | 5.32524 | 1571 ft | 126 kts | 314° |
| 2026-05-05 19:06 | 59.29252 | 5.31248 | 1383 ft | 128 kts | 315° |
| 2026-05-05 19:06 | 59.29872 | 5.30027 | 1168 ft | 127 kts | 322° |
| 2026-05-05 19:06 | 59.30535 | 5.28895 | 1029 ft | 127 kts | 315° |
| 2026-05-05 19:06 | 59.31136 | 5.27637 | 831 ft | 128 kts | 315° |
| 2026-05-05 19:07 | 59.31746 | 5.26352 | 663 ft | 127 kts | 317° |
| 2026-05-05 19:07 | 59.32376 | 5.25161 | 504 ft | 128 kts | 315° |
| 2026-05-05 19:07 | 59.32998 | 5.23900 | 362 ft | 128 kts | 312° |
| 2026-05-05 19:07 | 59.33621 | 5.22648 | 155 ft | 129 kts | 313° |
| 2026-05-05 19:08 | 59.34219 | 5.21441 | 74 ft | 107 kts | 313° |
| 2026-05-05 19:08 | 59.34547 | 5.20789 | 74 ft | 59 kts | 314° |
| 2026-05-05 19:08 | 59.34795 | 5.20296 | 62 ft | 40 kts | 314° |
| 2026-05-05 19:08 | 59.34943 | 5.20003 | 55 ft | 26 kts | 314° |
| 2026-05-05 19:09 | 59.35020 | 5.19840 | 52 ft | 7 kts | 299° |
| 2026-05-05 19:09 | 59.35053 | 5.19787 | 51 ft | 6 kts | 55° |
| 2026-05-05 19:09 | 59.35025 | 5.19848 | 52 ft | 6 kts | 143° |
| 2026-05-05 19:09 | 59.34994 | 5.19903 | 53 ft | 5 kts | 136° |
| 2026-05-05 19:10 | 59.34962 | 5.19964 | 54 ft | 7 kts | 135° |
| 2026-05-05 19:10 | 59.34915 | 5.20057 | 56 ft | 12 kts | 133° |
| 2026-05-05 19:10 | 59.34837 | 5.20214 | 59 ft | 19 kts | 134° |
| 2026-05-05 19:10 | 59.34723 | 5.20443 | 67 ft | 27 kts | 134° |
| 2026-05-05 19:11 | 59.34563 | 5.20764 | 74 ft | 38 kts | 134° |
| 2026-05-05 19:11 | 59.34391 | 5.21108 | 73 ft | 22 kts | 133° |
| 2026-05-05 19:11 | 59.34351 | 5.21289 | 72 ft | 13 kts | 52° |
| 2026-05-05 19:11 | 59.34402 | 5.21406 | 72 ft | 8 kts | 48° |
| 2026-05-05 19:12 | 59.34428 | 5.21509 | 70 ft | 9 kts | 46° |
| 2026-05-05 19:12 | 59.34448 | 5.21549 | 69 ft | 0 kts | 44° |